Time;durP1;ratioP1;P1;durP2;ratioP2;P2;SDS_P1;SDS_P2;PMS_P1;PMS_P2;Temp;Humidity;BMP_temperature;BMP_pressure;BME280_temperature;BME280_humidity;BME280_pressure;Samples;Min_cycle;Max_cycle;Signal;HPM_P1;HPM_P2
2022/03/22 00:00:51;;;;;;;45.08;24.33;;;;;;;;;;5037052;28;20059;-69
2022/03/22 00:03:17;;;;;;;44.85;24.65;;;;;;;;;;5019716;28;20048;-69
2022/03/22 00:05:45;;;;;;;46.60;25.27;;;;;;;;;;5050206;28;20102;-69
2022/03/22 00:08:11;;;;;;;39.13;24.25;;;;;;;;;;5037949;28;20052;-69
2022/03/22 00:10:38;;;;;;;42.40;25.35;;;;;;;;;;5029046;28;20053;-69
2022/03/22 00:13:05;;;;;;;39.55;25.08;;;;;;;;;;5034529;28;20053;-68
2022/03/22 00:15:32;;;;;;;41.13;24.83;;;;;;;;;;5033491;28;20045;-69
2022/03/22 00:18:19;;;;;;;43.58;25.95;;;;;;;;;;5051923;28;20053;-69
2022/03/22 00:20:45;;;;;;;43.28;25.33;;;;;;;;;;5038724;28;20040;-69
2022/03/22 00:23:13;;;;;;;43.63;26.02;;;;;;;;;;5052418;28;20054;-69
2022/03/22 00:25:39;;;;;;;47.83;27.17;;;;;;;;;;5053200;28;20044;-69
2022/03/22 00:28:05;;;;;;;41.72;25.58;;;;;;;;;;5040776;28;20482;-69
2022/03/22 00:30:32;;;;;;;46.28;26.10;;;;;;;;;;5041857;28;20057;-69
2022/03/22 00:33:00;;;;;;;41.58;25.80;;;;;;;;;;5062332;28;20578;-69
2022/03/22 00:35:28;;;;;;;42.83;27.35;;;;;;;;;;5054049;28;20059;-69
2022/03/22 00:37:56;;;;;;;44.80;26.83;;;;;;;;;;5036388;28;20050;-69
2022/03/22 00:40:24;;;;;;;44.60;26.13;;;;;;;;;;5053518;28;20911;-69
2022/03/22 00:42:53;;;;;;;47.95;25.95;;;;;;;;;;5043856;28;20057;-69
2022/03/22 00:45:21;;;;;;;43.47;26.73;;;;;;;;;;5056640;28;20518;-69
2022/03/22 00:47:49;;;;;;;45.28;25.92;;;;;;;;;;5043407;28;20769;-69
2022/03/22 00:50:17;;;;;;;40.10;25.27;;;;;;;;;;5047814;28;20051;-69
2022/03/22 00:52:43;;;;;;;41.95;27.13;;;;;;;;;;5054466;28;20052;-69
2022/03/22 00:55:12;;;;;;;42.95;25.02;;;;;;;;;;5032448;28;20060;-69
2022/03/22 00:57:39;;;;;;;42.40;25.67;;;;;;;;;;5043057;28;20509;-69
2022/03/22 01:00:07;;;;;;;44.88;26.25;;;;;;;;;;5016740;28;20518;-69
2022/03/22 01:02:34;;;;;;;44.65;25.23;;;;;;;;;;5056307;28;20056;-69
2022/03/22 01:05:03;;;;;;;44.17;26.88;;;;;;;;;;5043951;28;20041;-69
2022/03/22 01:07:29;;;;;;;41.63;25.33;;;;;;;;;;5043307;28;20057;-69
2022/03/22 01:09:55;;;;;;;43.92;25.55;;;;;;;;;;5052111;28;20281;-69
2022/03/22 01:12:22;;;;;;;43.35;25.77;;;;;;;;;;5043538;28;20056;-69
2022/03/22 01:14:49;;;;;;;50.35;26.23;;;;;;;;;;5049035;28;20045;-69
2022/03/22 01:17:16;;;;;;;41.03;24.20;;;;;;;;;;5036666;28;20047;-69
2022/03/22 01:19:42;;;;;;;43.53;26.45;;;;;;;;;;5050203;28;20041;-69
2022/03/22 01:22:08;;;;;;;42.00;26.30;;;;;;;;;;5051718;28;20420;-69
2022/03/22 01:24:35;;;;;;;39.00;24.83;;;;;;;;;;5054777;28;20060;-69
2022/03/22 01:27:01;;;;;;;42.22;26.33;;;;;;;;;;5048864;28;20041;-69
2022/03/22 01:29:28;;;;;;;45.53;26.40;;;;;;;;;;5037954;28;20448;-69
2022/03/22 01:31:55;;;;;;;41.42;26.33;;;;;;;;;;5050358;28;20491;-69
2022/03/22 01:34:21;;;;;;;48.08;26.10;;;;;;;;;;5033001;28;20417;-69
2022/03/22 01:36:48;;;;;;;44.95;26.77;;;;;;;;;;5054465;28;20084;-69
2022/03/22 01:39:14;;;;;;;44.88;26.85;;;;;;;;;;5025381;28;20060;-68
2022/03/22 01:41:40;;;;;;;42.63;26.60;;;;;;;;;;5048694;28;20060;-68
2022/03/22 01:44:07;;;;;;;48.60;26.65;;;;;;;;;;5042415;28;20053;-68
2022/03/22 01:46:35;;;;;;;48.75;27.42;;;;;;;;;;5029906;28;20051;-70
2022/03/22 01:49:01;;;;;;;44.42;26.92;;;;;;;;;;5043661;28;20414;-69
2022/03/22 01:51:31;;;;;;;43.55;25.48;;;;;;;;;;5040317;28;20055;-69
2022/03/22 01:53:58;;;;;;;44.03;26.58;;;;;;;;;;5044484;28;20041;-69
2022/03/22 01:56:24;;;;;;;46.33;25.88;;;;;;;;;;5039281;28;20420;-69
2022/03/22 01:58:50;;;;;;;44.70;27.45;;;;;;;;;;5046098;28;20490;-69
2022/03/22 02:06:51;;;;;;;41.65;25.63;;;;;;;;;;5044242;28;20048;-69
2022/03/22 02:09:17;;;;;;;38.40;24.48;;;;;;;;;;5042147;28;20045;-69
2022/03/22 02:11:44;;;;;;;41.95;25.85;;;;;;;;;;5044769;28;20041;-69
2022/03/22 02:14:10;;;;;;;39.35;24.35;;;;;;;;;;5034788;28;20056;-69
2022/03/22 02:16:36;;;;;;;39.53;24.13;;;;;;;;;;5043000;28;20071;-69
2022/03/22 02:19:03;;;;;;;45.05;25.50;;;;;;;;;;5029163;28;20047;-69
2022/03/22 02:21:31;;;;;;;40.90;23.25;;;;;;;;;;5035966;28;20053;-69
2022/03/22 02:23:57;;;;;;;40.58;24.65;;;;;;;;;;5045794;28;20402;-69
2022/03/22 02:26:25;;;;;;;38.50;24.02;;;;;;;;;;5053868;28;20048;-69
2022/03/22 02:28:53;;;;;;;38.85;23.98;;;;;;;;;;5021515;28;20041;-69
2022/03/22 02:31:20;;;;;;;;;;;;;;;;;;5037633;28;20147;-69
2022/03/22 02:33:46;;;;;;;40.63;24.15;;;;;;;;;;5041414;28;19972;-69
2022/03/22 02:36:13;;;;;;;39.92;24.05;;;;;;;;;;5037627;28;20052;-69
2022/03/22 02:38:39;;;;;;;38.35;24.30;;;;;;;;;;5025060;28;20048;-69
2022/03/22 02:41:06;;;;;;;40.40;23.10;;;;;;;;;;5033194;28;20113;-69
2022/03/22 02:43:33;;;;;;;38.08;24.33;;;;;;;;;;5031907;28;20045;-69
2022/03/22 02:45:59;;;;;;;40.03;23.27;;;;;;;;;;5045214;28;20049;-70
2022/03/22 02:48:27;;;;;;;39.95;24.70;;;;;;;;;;5036485;28;20489;-69
2022/03/22 02:50:53;;;;;;;37.78;23.70;;;;;;;;;;5046372;28;20681;-69
2022/03/22 02:53:19;;;;;;;36.60;22.95;;;;;;;;;;5045796;28;20045;-69
2022/03/22 02:55:45;;;;;;;39.72;23.02;;;;;;;;;;5031474;28;20041;-69
2022/03/22 02:58:12;;;;;;;46.10;24.88;;;;;;;;;;5047284;28;20423;-69
2022/03/22 03:00:38;;;;;;;37.20;23.85;;;;;;;;;;5038511;28;20067;-69
2022/03/22 03:03:05;;;;;;;40.13;24.38;;;;;;;;;;5058238;28;20053;-69
2022/03/22 03:05:32;;;;;;;37.45;23.67;;;;;;;;;;5041101;28;20103;-69
2022/03/22 03:08:00;;;;;;;40.13;24.02;;;;;;;;;;5026512;28;20040;-69
2022/03/22 03:10:26;;;;;;;41.03;24.13;;;;;;;;;;5036999;28;20042;-70
2022/03/22 03:13:03;;;;;;;39.75;23.88;;;;;;;;;;5023433;28;20052;-69
2022/03/22 03:15:30;;;;;;;37.63;23.45;;;;;;;;;;5042113;28;20061;-69
2022/03/22 03:17:57;;;;;;;40.70;24.10;;;;;;;;;;5041695;28;20055;-68
2022/03/22 03:20:23;;;;;;;41.17;22.02;;;;;;;;;;5047241;28;20057;-69
2022/03/22 03:22:49;;;;;;;39.75;23.15;;;;;;;;;;5039624;28;20052;-69
2022/03/22 03:25:16;;;;;;;38.72;22.73;;;;;;;;;;5033669;28;20053;-70
2022/03/22 03:27:42;;;;;;;38.50;23.08;;;;;;;;;;5041257;28;20057;-69
2022/03/22 03:30:08;;;;;;;39.85;24.33;;;;;;;;;;5049705;28;20419;-70
2022/03/22 03:32:35;;;;;;;38.45;24.40;;;;;;;;;;5048914;28;20053;-70
2022/03/22 03:35:01;;;;;;;35.10;22.30;;;;;;;;;;5038338;28;20067;-69
2022/03/22 03:37:37;;;;;;;35.85;23.27;;;;;;;;;;5032334;28;20491;-70
2022/03/22 03:40:04;;;;;;;37.72;23.65;;;;;;;;;;5037414;28;20072;-70
2022/03/22 03:42:30;;;;;;;38.15;22.48;;;;;;;;;;5053402;28;20618;-70
2022/03/22 03:47:41;;;;;;;34.78;22.42;;;;;;;;;;5041208;28;20038;-70
2022/03/22 03:50:09;;;;;;;35.85;22.17;;;;;;;;;;5047089;28;20470;-69
2022/03/22 03:52:36;;;;;;;35.53;21.45;;;;;;;;;;5039570;28;20049;-69
2022/03/22 03:55:06;;;;;;;37.45;22.00;;;;;;;;;;5043052;28;20087;-68
2022/03/22 03:57:34;;;;;;;37.47;22.33;;;;;;;;;;5028730;28;20053;-69
2022/03/22 04:00:00;;;;;;;37.80;22.33;;;;;;;;;;5041164;28;20049;-69
2022/03/22 04:02:26;;;;;;;39.20;23.13;;;;;;;;;;5039496;28;20053;-69
2022/03/22 04:04:53;;;;;;;37.75;22.85;;;;;;;;;;5043917;28;20052;-69
2022/03/22 04:07:21;;;;;;;37.65;22.33;;;;;;;;;;5045797;28;20045;-69
2022/03/22 04:09:47;;;;;;;36.60;22.25;;;;;;;;;;5030879;28;20051;-69
2022/03/22 04:12:14;;;;;;;36.33;22.27;;;;;;;;;;5052873;28;20156;-69
2022/03/22 04:14:40;;;;;;;36.55;22.48;;;;;;;;;;5035200;28;20053;-69
2022/03/22 04:17:08;;;;;;;41.00;22.30;;;;;;;;;;5044431;28;20052;-69
2022/03/22 04:19:35;;;;;;;40.17;22.90;;;;;;;;;;5024611;28;20406;-69
2022/03/22 04:22:02;;;;;;;34.45;21.25;;;;;;;;;;5045546;28;20045;-70
2022/03/22 04:24:29;;;;;;;36.58;21.83;;;;;;;;;;5048030;28;20053;-69
2022/03/22 04:32:41;;;;;;;36.90;21.40;;;;;;;;;;5017965;28;20053;-69
2022/03/22 04:32:42;;;;;;;34.72;19.42;;;;;;;;;;5034180;28;20067;-69
2022/03/22 04:35:17;;;;;;;36.50;21.83;;;;;;;;;;5055267;28;20040;-69
2022/03/22 04:37:44;;;;;;;37.95;23.70;;;;;;;;;;5042522;28;20506;-69
2022/03/22 04:40:11;;;;;;;31.88;21.48;;;;;;;;;;5036517;28;20041;-69
2022/03/22 04:42:37;;;;;;;37.78;22.25;;;;;;;;;;5024516;28;20498;-69
2022/03/22 04:45:04;;;;;;;38.53;21.83;;;;;;;;;;5041855;28;20056;-69
2022/03/22 04:47:30;;;;;;;36.92;22.38;;;;;;;;;;5040587;28;20054;-69
2022/03/22 04:49:56;;;;;;;33.20;21.65;;;;;;;;;;5035834;28;20049;-70
2022/03/22 04:57:53;;;;;;;35.83;21.80;;;;;;;;;;5036297;28;20412;-69
2022/03/22 05:00:20;;;;;;;34.35;21.25;;;;;;;;;;5034037;28;20053;-69
2022/03/22 05:02:47;;;;;;;32.92;21.20;;;;;;;;;;5044086;28;20053;-69
2022/03/22 05:05:15;;;;;;;35.67;21.13;;;;;;;;;;5032563;28;20132;-69
2022/03/22 05:07:41;;;;;;;36.03;21.40;;;;;;;;;;5054617;28;20045;-69
2022/03/22 05:10:08;;;;;;;34.58;21.73;;;;;;;;;;5052138;28;20045;-69
2022/03/22 05:12:37;;;;;;;34.97;21.42;;;;;;;;;;5022878;28;20057;-69
2022/03/22 05:15:04;;;;;;;34.42;21.58;;;;;;;;;;5049349;28;20047;-69
2022/03/22 05:17:30;;;;;;;33.17;20.83;;;;;;;;;;5049656;28;20055;-69
2022/03/22 05:19:56;;;;;;;36.25;21.35;;;;;;;;;;5049412;28;20049;-69
2022/03/22 05:22:23;;;;;;;34.90;22.13;;;;;;;;;;5027358;28;20059;-69
2022/03/22 05:24:51;;;;;;;33.50;20.15;;;;;;;;;;5043348;28;20049;-69
2022/03/22 05:27:18;;;;;;;44.65;22.92;;;;;;;;;;5055450;28;20040;-69
2022/03/22 05:29:44;;;;;;;36.75;21.92;;;;;;;;;;5047134;28;20060;-69
2022/03/22 05:32:11;;;;;;;39.35;23.17;;;;;;;;;;5035711;28;20045;-69
2022/03/22 05:34:37;;;;;;;38.35;22.02;;;;;;;;;;5038113;28;20100;-69
2022/03/22 05:37:03;;;;;;;40.15;21.85;;;;;;;;;;5037231;28;20148;-70
2022/03/22 05:39:30;;;;;;;34.67;20.70;;;;;;;;;;5039767;28;20498;-69
2022/03/22 05:41:57;;;;;;;36.40;21.58;;;;;;;;;;5035502;28;20463;-69
2022/03/22 05:44:24;;;;;;;36.90;21.98;;;;;;;;;;5032522;28;20611;-70
2022/03/22 05:46:50;;;;;;;38.90;21.80;;;;;;;;;;5039961;28;20045;-69
2022/03/22 05:49:16;;;;;;;38.17;21.90;;;;;;;;;;5061487;28;20132;-69
2022/03/22 05:51:43;;;;;;;37.13;21.23;;;;;;;;;;5029327;28;20446;-69
2022/03/22 05:54:09;;;;;;;33.92;20.55;;;;;;;;;;5041632;28;20064;-69
2022/03/22 05:56:35;;;;;;;34.72;22.23;;;;;;;;;;5025837;28;20417;-69
2022/03/22 05:59:02;;;;;;;34.90;20.08;;;;;;;;;;5050507;28;20064;-69
2022/03/22 06:01:29;;;;;;;39.33;19.88;;;;;;;;;;5048860;28;20047;-69
2022/03/22 06:03:56;;;;;;;38.78;21.60;;;;;;;;;;5048965;28;20067;-69
2022/03/22 06:06:23;;;;;;;32.55;19.48;;;;;;;;;;5042310;28;20064;-69
2022/03/22 06:08:50;;;;;;;37.03;21.25;;;;;;;;;;5037016;28;20053;-69
2022/03/22 06:11:17;;;;;;;38.38;20.08;;;;;;;;;;5055543;28;20089;-69
2022/03/22 06:13:44;;;;;;;37.63;20.83;;;;;;;;;;5049085;28;20048;-69
2022/03/22 06:16:10;;;;;;;40.13;21.50;;;;;;;;;;5050120;28;20076;-69
2022/03/22 06:18:36;;;;;;;52.67;21.73;;;;;;;;;;5043189;28;20049;-70
2022/03/22 06:21:03;;;;;;;36.63;20.10;;;;;;;;;;5036363;28;20045;-70
2022/03/22 06:23:29;;;;;;;36.65;21.13;;;;;;;;;;5048530;28;20095;-69
2022/03/22 06:25:56;;;;;;;37.35;21.30;;;;;;;;;;5024712;28;20040;-69
2022/03/22 06:28:22;;;;;;;35.55;20.88;;;;;;;;;;5047575;28;20072;-69
2022/03/22 06:30:49;;;;;;;34.97;20.83;;;;;;;;;;5053522;28;20068;-70
2022/03/22 06:33:19;;;;;;;37.90;20.65;;;;;;;;;;5038086;28;20055;-69
2022/03/22 06:35:46;;;;;;;41.35;21.70;;;;;;;;;;5035952;28;20426;-69
2022/03/22 06:38:13;;;;;;;35.97;20.60;;;;;;;;;;5024388;28;20128;-70
2022/03/22 06:40:39;;;;;;;37.35;21.88;;;;;;;;;;5043954;28;20049;-69
2022/03/22 06:43:07;;;;;;;36.65;21.75;;;;;;;;;;5037017;28;20045;-69
2022/03/22 06:45:34;;;;;;;46.92;21.90;;;;;;;;;;5048939;28;20048;-69
2022/03/22 06:48:01;;;;;;;35.88;21.50;;;;;;;;;;5030250;28;20368;-69
2022/03/22 06:50:28;;;;;;;36.17;20.80;;;;;;;;;;5037195;28;20049;-69
2022/03/22 06:52:54;;;;;;;44.75;23.30;;;;;;;;;;5045699;28;20041;-69
2022/03/22 06:55:22;;;;;;;42.92;22.98;;;;;;;;;;5039624;28;20429;-69
2022/03/22 06:57:54;;;;;;;39.58;23.88;;;;;;;;;;5036588;28;20075;-69
2022/03/22 07:00:20;;;;;;;41.67;23.42;;;;;;;;;;5027285;28;20057;-70
2022/03/22 07:02:47;;;;;;;35.75;21.80;;;;;;;;;;5042074;28;20049;-71
2022/03/22 07:05:15;;;;;;;43.08;22.48;;;;;;;;;;5052216;28;20049;-70
2022/03/22 07:07:42;;;;;;;42.97;22.73;;;;;;;;;;5043300;28;20160;-70
2022/03/22 07:10:10;;;;;;;37.55;21.48;;;;;;;;;;5049628;28;20045;-70
2022/03/22 07:12:47;;;;;;;33.30;20.65;;;;;;;;;;5042650;28;20067;-70
2022/03/22 07:15:14;;;;;;;35.33;21.65;;;;;;;;;;5036235;28;20045;-70
2022/03/22 07:17:40;;;;;;;41.35;22.45;;;;;;;;;;5033406;28;20131;-70
2022/03/22 07:20:07;;;;;;;36.50;21.25;;;;;;;;;;5039677;28;20135;-70
2022/03/22 07:22:33;;;;;;;35.83;21.50;;;;;;;;;;5044457;28;20049;-70
2022/03/22 07:25:00;;;;;;;39.45;21.38;;;;;;;;;;5033974;28;20052;-70
2022/03/22 07:27:26;;;;;;;37.10;20.80;;;;;;;;;;5038596;28;20064;-70
2022/03/22 07:29:53;;;;;;;35.58;20.55;;;;;;;;;;5032791;28;20044;-70
2022/03/22 07:32:19;;;;;;;32.35;20.73;;;;;;;;;;5037935;28;20045;-69
2022/03/22 07:34:45;;;;;;;32.65;21.33;;;;;;;;;;5036700;28;20059;-70
2022/03/22 07:37:14;;;;;;;31.42;20.63;;;;;;;;;;5035398;28;20052;-70
2022/03/22 07:39:40;;;;;;;31.92;20.00;;;;;;;;;;5028409;28;20164;-71
2022/03/22 07:42:06;;;;;;;37.47;21.38;;;;;;;;;;5040192;28;20053;-70
2022/03/22 07:44:33;;;;;;;32.38;21.15;;;;;;;;;;5046494;28;20057;-70
2022/03/22 07:46:59;;;;;;;33.22;21.50;;;;;;;;;;5053448;28;20055;-69
2022/03/22 07:54:56;;;;;;;35.17;19.83;;;;;;;;;;5038374;28;20499;-70
2022/03/22 07:57:22;;;;;;;31.98;20.77;;;;;;;;;;5043735;28;20075;-70
2022/03/22 07:59:49;;;;;;;34.72;19.75;;;;;;;;;;5049946;28;20061;-70
2022/03/22 08:02:15;;;;;;;26.50;16.85;;;;;;;;;;5051453;28;20059;-70
2022/03/22 08:04:41;;;;;;;27.40;18.50;;;;;;;;;;5041841;28;20061;-70
2022/03/22 08:07:09;;;;;;;33.60;19.02;;;;;;;;;;5047229;28;20052;-70
2022/03/22 08:09:36;;;;;;;26.10;16.45;;;;;;;;;;5016403;28;20072;-70
2022/03/22 08:12:02;;;;;;;30.88;19.17;;;;;;;;;;5046004;28;20136;-70
2022/03/22 08:14:28;;;;;;;29.25;17.65;;;;;;;;;;5042008;28;20076;-70
2022/03/22 08:16:55;;;;;;;33.03;19.52;;;;;;;;;;5056043;28;20054;-71
2022/03/22 08:19:21;;;;;;;32.97;17.20;;;;;;;;;;5046195;28;20084;-70
2022/03/22 08:21:48;;;;;;;31.50;18.17;;;;;;;;;;5038370;28;20057;-70
2022/03/22 08:24:15;;;;;;;32.88;17.80;;;;;;;;;;5028748;28;20556;-70
2022/03/22 08:26:41;;;;;;;28.55;17.95;;;;;;;;;;5041178;28;20140;-70
2022/03/22 08:29:07;;;;;;;30.77;18.30;;;;;;;;;;5047153;28;20069;-70
2022/03/22 08:31:41;;;;;;;32.38;18.48;;;;;;;;;;5028957;28;20038;-70
2022/03/22 08:34:07;;;;;;;32.13;19.60;;;;;;;;;;5042792;28;20048;-70
2022/03/22 08:36:34;;;;;;;31.40;18.48;;;;;;;;;;5040064;28;20045;-69
2022/03/22 08:39:01;;;;;;;28.67;16.33;;;;;;;;;;5041141;28;20049;-69
2022/03/22 08:41:27;;;;;;;31.25;18.38;;;;;;;;;;5047529;28;20418;-70
2022/03/22 08:43:54;;;;;;;33.40;18.85;;;;;;;;;;5038481;28;20053;-70
2022/03/22 08:46:24;;;;;;;32.00;18.08;;;;;;;;;;5050013;28;20048;-70
2022/03/22 08:48:52;;;;;;;27.58;18.75;;;;;;;;;;5032975;28;20141;-70
2022/03/22 08:51:19;;;;;;;25.95;16.05;;;;;;;;;;5048605;28;20486;-70
2022/03/22 08:53:46;;;;;;;25.73;17.08;;;;;;;;;;5056610;28;20072;-70
2022/03/22 08:56:13;;;;;;;29.92;18.45;;;;;;;;;;5044767;28;20131;-70
2022/03/22 08:58:40;;;;;;;28.63;17.73;;;;;;;;;;5048972;28;20052;-69
2022/03/22 09:01:07;;;;;;;31.30;18.27;;;;;;;;;;5055302;28;20107;-70
2022/03/22 09:03:35;;;;;;;32.58;19.40;;;;;;;;;;5038215;28;20036;-70
2022/03/22 09:06:07;;;;;;;31.98;18.05;;;;;;;;;;5043692;28;20425;-70
2022/03/22 09:08:35;;;;;;;32.15;17.15;;;;;;;;;;5042688;28;20067;-70
2022/03/22 09:11:02;;;;;;;34.00;19.48;;;;;;;;;;5052400;28;20426;-70
2022/03/22 09:13:34;;;;;;;28.77;18.30;;;;;;;;;;5036184;28;20084;-70
2022/03/22 09:16:01;;;;;;;32.28;18.23;;;;;;;;;;5045453;28;20041;-70
2022/03/22 09:18:27;;;;;;;27.98;17.85;;;;;;;;;;5043698;28;20068;-70
2022/03/22 09:20:53;;;;;;;35.13;19.88;;;;;;;;;;5046348;28;20053;-71
2022/03/22 09:23:21;;;;;;;33.60;18.98;;;;;;;;;;5038390;28;20051;-70
2022/03/22 09:25:47;;;;;;;22.73;15.32;;;;;;;;;;5042201;28;20057;-70
2022/03/22 09:28:13;;;;;;;33.38;18.48;;;;;;;;;;5044426;28;20056;-71
2022/03/22 09:30:40;;;;;;;29.02;19.17;;;;;;;;;;5035831;28;20041;-71
2022/03/22 09:33:07;;;;;;;32.30;19.17;;;;;;;;;;5046290;28;20384;-70
2022/03/22 09:35:35;;;;;;;29.67;19.20;;;;;;;;;;5033630;28;20060;-70
2022/03/22 09:38:02;;;;;;;30.05;20.17;;;;;;;;;;5050000;28;20048;-71
2022/03/22 09:40:28;;;;;;;32.15;20.27;;;;;;;;;;5054079;28;21692;-70
2022/03/22 09:42:55;;;;;;;33.08;20.27;;;;;;;;;;5057590;28;20056;-71
2022/03/22 09:45:24;;;;;;;33.17;20.15;;;;;;;;;;5045889;28;20055;-70
2022/03/22 09:47:50;;;;;;;;;;;;;;;;;;5039586;28;20128;-70
2022/03/22 09:50:17;;;;;;;33.38;19.35;;;;;;;;;;5049434;28;19921;-70
2022/03/22 09:52:43;;;;;;;31.80;20.00;;;;;;;;;;5041650;28;20059;-70
2022/03/22 09:55:11;;;;;;;28.77;18.45;;;;;;;;;;5042033;28;20123;-70
2022/03/22 09:57:38;;;;;;;35.72;20.50;;;;;;;;;;5051159;28;20476;-70
2022/03/22 10:00:05;;;;;;;31.23;20.67;;;;;;;;;;5044819;28;20128;-70
2022/03/22 10:02:34;;;;;;;32.95;19.02;;;;;;;;;;5046409;28;20052;-70
2022/03/22 10:05:00;;;;;;;31.42;19.83;;;;;;;;;;5044027;28;20049;-70
2022/03/22 10:07:30;;;;;;;32.65;19.90;;;;;;;;;;5047182;28;20053;-70
2022/03/22 10:10:02;;;;;;;33.40;20.33;;;;;;;;;;5049568;28;20045;-70
2022/03/22 10:12:29;;;;;;;35.92;21.05;;;;;;;;;;5037627;28;20053;-69
2022/03/22 10:15:15;;;;;;;29.95;19.13;;;;;;;;;;5028682;28;20417;-70
2022/03/22 10:17:43;;;;;;;30.00;20.55;;;;;;;;;;5044050;28;20493;-69
2022/03/22 10:20:20;;;;;;;31.33;20.90;;;;;;;;;;5042264;28;20045;-70
2022/03/22 10:22:53;;;;;;;35.13;20.73;;;;;;;;;;5036749;28;20041;-70
2022/03/22 10:25:20;;;;;;;29.60;19.65;;;;;;;;;;5037998;28;20048;-69
2022/03/22 10:27:46;;;;;;;28.42;17.58;;;;;;;;;;5038941;28;20055;-69
2022/03/22 10:30:28;;;;;;;33.10;20.00;;;;;;;;;;5039958;28;20053;-69
2022/03/22 10:32:55;;;;;;;32.33;17.63;;;;;;;;;;5032991;28;20045;-69
2022/03/22 10:35:21;;;;;;;32.03;20.98;;;;;;;;;;5046684;28;20051;-69
2022/03/22 10:37:56;;;;;;;35.42;22.20;;;;;;;;;;5025893;28;20048;-69
2022/03/22 10:40:25;;;;;;;32.42;20.38;;;;;;;;;;5039131;28;20048;-69
2022/03/22 10:42:53;;;;;;;33.85;22.08;;;;;;;;;;5034351;28;20051;-69
2022/03/22 10:45:19;;;;;;;31.45;21.05;;;;;;;;;;5044766;28;20049;-69
2022/03/22 10:47:48;;;;;;;31.10;21.42;;;;;;;;;;5046459;28;20053;-69
2022/03/22 10:50:14;;;;;;;34.88;20.63;;;;;;;;;;5037370;28;20494;-69
2022/03/22 10:52:54;;;;;;;38.03;21.63;;;;;;;;;;5056545;28;20057;-69
2022/03/22 10:55:21;;;;;;;31.33;20.55;;;;;;;;;;5040344;28;20479;-69
2022/03/22 10:57:52;;;;;;;31.92;19.63;;;;;;;;;;5042032;28;20055;-69
2022/03/22 11:00:21;;;;;;;28.70;19.05;;;;;;;;;;5041401;28;20475;-69
2022/03/22 11:02:49;;;;;;;33.45;19.65;;;;;;;;;;5042664;28;20503;-69
2022/03/22 11:05:19;;;;;;;32.13;19.90;;;;;;;;;;5048689;28;20128;-69
2022/03/22 11:07:47;;;;;;;31.65;20.50;;;;;;;;;;5040372;28;20052;-69
2022/03/22 11:10:14;;;;;;;30.08;20.30;;;;;;;;;;5052181;28;20036;-69
2022/03/22 11:12:41;;;;;;;28.95;20.88;;;;;;;;;;5036471;28;20045;-69
2022/03/22 11:15:08;;;;;;;28.85;17.48;;;;;;;;;;5041741;28;20399;-69
2022/03/22 11:17:35;;;;;;;31.20;20.63;;;;;;;;;;5039858;28;20060;-69
2022/03/22 11:20:04;;;;;;;33.92;20.45;;;;;;;;;;5046251;28;20056;-69
2022/03/22 11:22:31;;;;;;;31.23;20.20;;;;;;;;;;5037885;28;20038;-69
2022/03/22 11:25:11;;;;;;;30.27;19.40;;;;;;;;;;5041619;28;20421;-70
2022/03/22 11:27:38;;;;;;;24.40;16.13;;;;;;;;;;5041821;28;20064;-70
2022/03/22 11:30:06;;;;;;;27.25;19.08;;;;;;;;;;5034443;28;20048;-71
2022/03/22 11:35:24;;;;;;;28.95;17.30;;;;;;;;;;5027880;28;20047;-70
2022/03/22 11:38:00;;;;;;;32.13;20.05;;;;;;;;;;5038149;28;20060;-70
2022/03/22 11:43:13;;;;;;;32.17;20.02;;;;;;;;;;5048028;28;20051;-71
2022/03/22 11:45:49;;;;;;;28.52;17.20;;;;;;;;;;5041671;28;20048;-71
2022/03/22 11:48:16;;;;;;;27.15;19.00;;;;;;;;;;5041037;28;20064;-71
2022/03/22 11:50:43;;;;;;;32.40;20.05;;;;;;;;;;5041206;28;20522;-70
2022/03/22 11:53:18;;;;;;;27.15;19.30;;;;;;;;;;5042859;28;20136;-71
2022/03/22 11:55:47;;;;;;;32.08;19.48;;;;;;;;;;5040579;28;20055;-71
2022/03/22 11:58:14;;;;;;;28.88;18.77;;;;;;;;;;5026515;28;20082;-71
2022/03/22 12:00:56;;;;;;;29.45;19.58;;;;;;;;;;5044751;28;20041;-70
2022/03/22 12:03:29;;;;;;;32.70;20.75;;;;;;;;;;5030364;28;20049;-70
2022/03/22 12:06:08;;;;;;;33.25;21.00;;;;;;;;;;5051721;28;20045;-70
2022/03/22 12:08:35;;;;;;;30.70;19.37;;;;;;;;;;5035953;28;20159;-70
2022/03/22 12:11:01;;;;;;;32.25;19.75;;;;;;;;;;5033183;28;20506;-70
2022/03/22 12:13:30;;;;;;;28.92;19.05;;;;;;;;;;5049278;28;20045;-70
2022/03/22 12:15:57;;;;;;;33.05;18.95;;;;;;;;;;5027855;28;20055;-71
2022/03/22 12:18:30;;;;;;;31.67;20.67;;;;;;;;;;5040543;28;20059;-70
2022/03/22 12:20:57;;;;;;;30.83;19.88;;;;;;;;;;5038754;28;20085;-70
2022/03/22 12:23:24;;;;;;;30.13;19.33;;;;;;;;;;5045712;28;20049;-70
2022/03/22 12:25:51;;;;;;;33.88;20.42;;;;;;;;;;5034586;28;20056;-70
2022/03/22 12:28:18;;;;;;;29.17;19.52;;;;;;;;;;5042654;28;20068;-70
2022/03/22 12:30:44;;;;;;;29.48;18.33;;;;;;;;;;5013153;28;20045;-70
2022/03/22 12:33:18;;;;;;;30.45;19.95;;;;;;;;;;5029543;28;20049;-71
2022/03/22 12:35:46;;;;;;;29.33;18.65;;;;;;;;;;5044991;28;20056;-70
2022/03/22 12:38:12;;;;;;;31.15;18.30;;;;;;;;;;5048565;28;20714;-71
2022/03/22 12:40:39;;;;;;;30.63;17.85;;;;;;;;;;5039498;28;20410;-71
2022/03/22 12:43:09;;;;;;;29.88;18.05;;;;;;;;;;5035362;28;20053;-71
2022/03/22 12:45:35;;;;;;;25.10;16.95;;;;;;;;;;5036436;28;20060;-70
2022/03/22 12:48:01;;;;;;;34.42;18.35;;;;;;;;;;5040377;28;20415;-70
2022/03/22 12:50:28;;;;;;;32.58;18.38;;;;;;;;;;5044293;28;20512;-71
2022/03/22 12:52:55;;;;;;;25.83;16.88;;;;;;;;;;5048650;28;20072;-70
2022/03/22 12:55:22;;;;;;;29.98;17.92;;;;;;;;;;5037169;28;20054;-71
2022/03/22 12:57:56;;;;;;;24.98;16.52;;;;;;;;;;5037819;28;20417;-71
2022/03/22 13:00:34;;;;;;;22.98;15.07;;;;;;;;;;5035330;28;20577;-71
2022/03/22 13:03:11;;;;;;;24.00;15.45;;;;;;;;;;5035226;28;20087;-70
2022/03/22 13:05:42;;;;;;;22.23;13.73;;;;;;;;;;5041636;28;20053;-71
2022/03/22 13:08:16;;;;;;;25.92;17.13;;;;;;;;;;5040367;28;20286;-71
2022/03/22 13:15:01;;;;;;;28.73;18.13;;;;;;;;;;5037218;28;19928;-70
2022/03/22 13:16:21;;;;;;;22.88;14.38;;;;;;;;;;5045654;28;20041;-70
2022/03/22 13:18:48;;;;;;;25.40;14.98;;;;;;;;;;5042967;28;20052;-70
2022/03/22 13:21:20;;;;;;;18.30;13.15;;;;;;;;;;5037320;28;20053;-70
2022/03/22 13:23:57;;;;;;;25.25;15.95;;;;;;;;;;5031032;28;20119;-71
2022/03/22 13:26:24;;;;;;;23.70;15.57;;;;;;;;;;5036624;28;20529;-70
2022/03/22 13:28:51;;;;;;;29.83;16.48;;;;;;;;;;5041658;28;20131;-70
2022/03/22 13:31:22;;;;;;;17.83;12.27;;;;;;;;;;5040772;28;20179;-73
2022/03/22 13:33:57;;;;;;;20.13;11.68;;;;;;;;;;5048468;28;20058;-71
2022/03/22 13:36:23;;;;;;;21.52;13.88;;;;;;;;;;5041085;28;20433;-71
2022/03/22 13:38:50;;;;;;;23.63;13.05;;;;;;;;;;5038111;28;20490;-70
2022/03/22 13:41:27;;;;;;;22.13;11.07;;;;;;;;;;5036456;28;20543;-71
2022/03/22 13:43:53;;;;;;;24.30;13.68;;;;;;;;;;5048934;28;20657;-71
2022/03/22 13:46:20;;;;;;;26.15;15.05;;;;;;;;;;5042673;28;20047;-71
2022/03/22 13:48:49;;;;;;;28.45;17.85;;;;;;;;;;5045704;28;20045;-71
2022/03/22 13:51:23;;;;;;;24.15;16.85;;;;;;;;;;5039557;28;20760;-71
2022/03/22 13:53:50;;;;;;;24.63;15.60;;;;;;;;;;5041654;28;20048;-71
2022/03/22 13:56:21;;;;;;;24.00;14.43;;;;;;;;;;5050799;28;20494;-71
2022/03/22 13:58:48;;;;;;;23.40;15.18;;;;;;;;;;5042237;28;20048;-70
2022/03/22 14:01:15;;;;;;;28.25;17.45;;;;;;;;;;5051440;28;20049;-71
2022/03/22 14:03:42;;;;;;;28.47;17.50;;;;;;;;;;5035583;28;20158;-71
2022/03/22 14:06:09;;;;;;;24.40;15.82;;;;;;;;;;5051400;28;20090;-71
2022/03/22 14:08:36;;;;;;;20.42;14.02;;;;;;;;;;5047182;28;20065;-71
2022/03/22 14:11:03;;;;;;;22.45;14.68;;;;;;;;;;5047714;28;20045;-71
2022/03/22 14:13:31;;;;;;;25.05;15.48;;;;;;;;;;5040852;28;20049;-71
2022/03/22 14:15:57;;;;;;;;;;;;;;;;;;5038411;28;20132;-71
2022/03/22 14:18:24;;;;;;;20.95;13.55;;;;;;;;;;5042536;28;19921;-71
2022/03/22 14:20:51;;;;;;;21.27;14.95;;;;;;;;;;5023308;28;20118;-71
2022/03/22 14:23:17;;;;;;;29.15;15.30;;;;;;;;;;5042975;28;20050;-71
2022/03/22 14:25:45;;;;;;;20.92;15.68;;;;;;;;;;5043105;28;20048;-72
2022/03/22 14:28:12;;;;;;;22.55;14.07;;;;;;;;;;5039444;28;20044;-71
2022/03/22 14:30:40;;;;;;;21.73;15.07;;;;;;;;;;5044768;28;20053;-71
2022/03/22 14:33:08;;;;;;;27.65;15.88;;;;;;;;;;5037319;28;20055;-71
2022/03/22 14:35:46;;;;;;;29.27;15.13;;;;;;;;;;5041010;28;20053;-71
2022/03/22 14:38:20;;;;;;;21.00;15.07;;;;;;;;;;5036437;28;20428;-71
2022/03/22 14:40:48;;;;;;;26.85;15.20;;;;;;;;;;5048559;28;20045;-71
2022/03/22 14:43:22;;;;;;;23.13;15.45;;;;;;;;;;5039252;28;20107;-72
2022/03/22 14:45:50;;;;;;;20.45;15.63;;;;;;;;;;5041433;28;20052;-71
2022/03/22 14:48:23;;;;;;;22.52;14.02;;;;;;;;;;5041114;28;20045;-71
2022/03/22 14:50:50;;;;;;;27.88;13.80;;;;;;;;;;5033228;28;20049;-71
2022/03/22 14:58:48;;;;;;;26.98;13.20;;;;;;;;;;5045540;28;20062;-71